createdAt,value
2023-01-04T00:01:48.158Z,11.13
2023-01-04T00:04:16.077Z,10.48
2023-01-04T00:06:43.889Z,11.43
2023-01-04T00:09:11.881Z,10.98
2023-01-04T00:11:40.021Z,11.80
2023-01-04T00:14:08.055Z,11.40
2023-01-04T00:16:36.032Z,10.70
2023-01-04T00:19:04.249Z,11.60
2023-01-04T00:21:32.672Z,11.40
2023-01-04T00:24:01.895Z,10.80
2023-01-04T00:26:32.407Z,10.30
2023-01-04T00:29:06.322Z,11.50
2023-01-04T00:31:35.985Z,10.13
2023-01-04T00:34:06.193Z,11.00
2023-01-04T00:36:34.897Z,10.37
2023-01-04T00:39:10.832Z,10.77
2023-01-04T00:41:59.244Z,10.18
2023-01-04T00:44:29.727Z,10.90
2023-01-04T00:46:58.087Z,10.57
2023-01-04T00:49:26.836Z,10.43
2023-01-04T00:51:54.837Z,11.00
2023-01-04T00:54:22.929Z,10.40
2023-01-04T00:56:51.042Z,10.02
2023-01-04T00:59:21.086Z,10.73
2023-01-04T01:01:49.218Z,10.00
2023-01-04T01:04:23.522Z,10.55
2023-01-04T01:06:52.949Z,10.45
2023-01-04T01:09:23.293Z,10.25
2023-01-04T01:11:53.101Z,9.93
2023-01-04T01:14:24.406Z,9.77
2023-01-04T01:16:57.047Z,9.73
2023-01-04T01:19:27.707Z,9.23
2023-01-04T01:21:58.171Z,9.57
2023-01-04T01:24:27.263Z,9.38
2023-01-04T01:26:56.025Z,9.00
2023-01-04T01:29:24.343Z,8.65
2023-01-04T01:31:52.405Z,7.97
2023-01-04T01:34:21.123Z,7.03
2023-01-04T01:36:49.276Z,7.38
2023-01-04T01:39:19.264Z,7.00
2023-01-04T01:41:47.631Z,7.75
2023-01-04T01:44:43.443Z,7.78
2023-01-04T01:47:23.935Z,7.00
2023-01-04T01:49:55.493Z,7.68
2023-01-04T01:52:28.179Z,7.93
2023-01-04T01:55:03.691Z,7.53
2023-01-04T01:57:34.887Z,7.68
2023-01-04T02:00:10.509Z,8.13
2023-01-04T02:02:58.684Z,7.60
2023-01-04T02:05:28.866Z,9.00
2023-01-04T02:07:56.966Z,7.38
2023-01-04T02:10:25.411Z,7.78
2023-01-04T02:12:54.271Z,7.60
2023-01-04T02:15:27.098Z,7.63
2023-01-04T02:18:08.535Z,7.50
2023-01-04T02:20:51.011Z,7.72
2023-01-04T02:23:54.447Z,8.07
2023-01-04T02:26:36.947Z,8.38
2023-01-04T02:29:28.821Z,7.68
2023-01-04T02:32:12.337Z,8.33
2023-01-04T02:34:58.578Z,8.55
2023-01-04T02:37:48.829Z,8.75
2023-01-04T02:40:35.260Z,8.60
2023-01-04T02:43:46.059Z,8.07
2023-01-04T02:46:23.860Z,8.05
2023-01-04T02:49:10.311Z,8.50
2023-01-04T02:51:39.696Z,8.40
2023-01-04T02:54:18.253Z,9.18
2023-01-04T02:57:14.239Z,9.05
2023-01-04T03:00:09.263Z,9.02
2023-01-04T03:03:17.625Z,8.55
2023-01-04T03:06:18.204Z,8.90
2023-01-04T03:09:09.139Z,8.63
2023-01-04T03:12:19.400Z,8.05
2023-01-04T03:15:00.648Z,9.05
2023-01-04T03:17:35.581Z,9.40
2023-01-04T03:20:05.022Z,8.70
2023-01-04T03:23:01.291Z,8.57
2023-01-04T03:25:53.369Z,8.65
2023-01-04T03:28:41.535Z,7.88
2023-01-04T03:31:40.760Z,8.00
2023-01-04T03:34:27.439Z,7.47
2023-01-04T03:37:10.620Z,7.72
2023-01-04T03:40:09.214Z,7.50
2023-01-04T03:43:14.401Z,7.25
2023-01-04T03:46:10.717Z,7.57
2023-01-04T03:49:23.631Z,7.57
2023-01-04T03:51:54.891Z,7.53
2023-01-04T03:54:40.459Z,7.35
2023-01-04T03:57:10.721Z,7.93
2023-01-04T03:59:54.791Z,7.25
2023-01-04T04:02:33.390Z,7.53
2023-01-04T04:05:19.908Z,6.70
2023-01-04T04:08:06.617Z,7.00
2023-01-04T04:10:37.995Z,7.60
2023-01-04T04:13:06.163Z,7.65
2023-01-04T04:15:34.455Z,7.77
2023-01-04T04:18:02.889Z,7.78
2023-01-04T04:20:30.887Z,8.05
2023-01-04T04:22:59.423Z,7.95
2023-01-04T04:25:27.832Z,7.97
2023-01-04T04:27:56.285Z,7.50
2023-01-04T04:30:24.349Z,7.65
2023-01-04T04:32:52.675Z,7.68
2023-01-04T04:35:20.680Z,8.07
2023-01-04T04:37:48.644Z,8.48
2023-01-04T04:40:36.930Z,8.13
2023-01-04T04:43:08.868Z,8.38
2023-01-04T04:45:37.133Z,8.32
2023-01-04T04:48:05.759Z,8.75
2023-01-04T04:50:34.563Z,8.15
2023-01-04T04:53:02.592Z,8.27
2023-01-04T04:55:30.680Z,8.63
2023-01-04T04:57:58.492Z,8.35
2023-01-04T05:00:27.162Z,8.70
2023-01-04T05:02:55.118Z,8.25
2023-01-04T05:05:23.305Z,8.97
2023-01-04T05:07:51.335Z,8.40
2023-01-04T05:10:19.795Z,8.50
2023-01-04T05:13:00.927Z,9.13
2023-01-04T05:15:37.749Z,8.40
2023-01-04T05:18:07.667Z,9.10
2023-01-04T05:20:35.935Z,8.77
2023-01-04T05:23:04.475Z,8.43
2023-01-04T05:25:32.956Z,7.78
2023-01-04T05:28:01.612Z,7.85
2023-01-04T05:30:47.838Z,6.90
2023-01-04T05:33:16.111Z,6.30
2023-01-04T05:35:44.436Z,6.35
2023-01-04T05:38:13.035Z,6.40
2023-01-04T05:40:41.395Z,6.05
2023-01-04T05:43:10.261Z,5.97
2023-01-04T05:45:39.628Z,5.40
2023-01-04T05:48:08.538Z,4.93
2023-01-04T05:50:38.850Z,5.55
2023-01-04T05:53:11.634Z,5.35
2023-01-04T05:55:41.273Z,5.47
2023-01-04T05:58:10.133Z,5.32
2023-01-04T06:00:38.036Z,5.88
2023-01-04T06:03:06.276Z,4.88
2023-01-04T06:05:34.108Z,4.93
2023-01-04T06:08:02.105Z,4.80
2023-01-04T06:10:30.033Z,4.82
2023-01-04T06:12:57.830Z,4.70
2023-01-04T06:15:25.733Z,4.45
2023-01-04T06:17:53.587Z,4.30
2023-01-04T06:20:21.627Z,4.47
2023-01-04T06:22:49.551Z,4.03
2023-01-04T06:25:17.881Z,4.00
2023-01-04T06:27:46.072Z,4.35
2023-01-04T06:30:13.937Z,4.20
2023-01-04T06:32:41.933Z,4.00
2023-01-04T06:35:09.957Z,4.20
2023-01-04T06:37:41.115Z,3.53
2023-01-04T06:40:09.935Z,4.03
2023-01-04T06:42:46.958Z,3.97
2023-01-04T06:45:16.841Z,3.60
2023-01-04T06:47:45.040Z,3.70
2023-01-04T06:50:13.262Z,3.60
2023-01-04T06:52:41.621Z,3.90
2023-01-04T06:55:10.117Z,4.10
2023-01-04T06:57:38.488Z,3.90
2023-01-04T07:00:09.207Z,3.92
2023-01-04T07:02:37.477Z,3.90
2023-01-04T07:05:06.258Z,4.15
2023-01-04T07:07:35.769Z,4.63
2023-01-04T07:10:09.419Z,6.30
2023-01-04T07:12:39.266Z,5.50
2023-01-04T07:15:38.395Z,5.03
2023-01-04T07:17:56.379Z,4.90
2023-01-04T07:20:24.422Z,5.10
2023-01-04T07:22:52.941Z,5.70
2023-01-04T07:25:20.920Z,5.60
2023-01-04T07:27:55.629Z,4.70
2023-01-04T07:30:24.721Z,5.10
2023-01-04T07:32:54.442Z,4.85
2023-01-04T07:35:23.142Z,5.60
2023-01-04T07:37:57.802Z,6.80
2023-01-04T07:40:28.188Z,6.82
2023-01-04T07:42:58.124Z,6.90
2023-01-04T07:45:27.954Z,7.28
2023-01-04T07:47:55.854Z,8.07
2023-01-04T07:50:24.482Z,8.00
2023-01-04T07:52:52.376Z,7.85
2023-01-04T07:55:20.405Z,8.40
2023-01-04T07:57:48.326Z,7.78
2023-01-04T08:00:17.121Z,5.87
2023-01-04T08:02:45.341Z,8.25
2023-01-04T08:05:13.568Z,8.95
2023-01-04T08:07:41.558Z,8.55
2023-01-04T08:10:09.811Z,9.27
2023-01-04T08:12:38.175Z,9.13
2023-01-04T08:15:06.792Z,9.63
2023-01-04T08:17:35.450Z,8.98
2023-01-04T08:20:04.094Z,8.63
2023-01-04T08:22:32.251Z,8.52
2023-01-04T08:25:00.343Z,8.50
2023-01-04T08:27:28.256Z,8.13
2023-01-04T08:29:56.228Z,6.72
2023-01-04T08:32:24.159Z,7.13
2023-01-04T08:34:52.251Z,6.97
2023-01-04T08:37:20.042Z,6.97
2023-01-04T08:39:49.767Z,7.00
2023-01-04T08:42:28.232Z,6.72
2023-01-04T08:45:02.047Z,6.50
2023-01-04T08:47:31.416Z,6.78
2023-01-04T08:50:04.866Z,5.87
2023-01-04T08:52:39.127Z,5.13
2023-01-04T08:55:12.505Z,4.60
2023-01-04T08:57:41.460Z,4.80
2023-01-04T09:00:11.112Z,5.07
2023-01-04T09:02:39.027Z,4.43
2023-01-04T09:05:07.573Z,4.13
2023-01-04T09:07:35.544Z,4.72
2023-01-04T09:10:03.746Z,5.32
2023-01-04T09:12:31.767Z,5.75
2023-01-04T09:14:59.677Z,4.33
2023-01-04T09:17:27.526Z,4.40
2023-01-04T09:19:55.521Z,4.38
2023-01-04T09:22:23.577Z,4.43
2023-01-04T09:24:51.714Z,5.07
2023-01-04T09:27:20.062Z,6.47
2023-01-04T09:29:48.013Z,9.15
2023-01-04T09:32:16.931Z,7.88
2023-01-04T09:34:46.000Z,7.40
2023-01-04T09:37:14.088Z,7.25
2023-01-04T09:39:42.447Z,6.60
2023-01-04T09:42:35.026Z,6.25
2023-01-04T09:45:24.156Z,6.15
2023-01-04T09:48:02.083Z,6.25
2023-01-04T09:50:35.612Z,5.63
2023-01-04T09:53:17.273Z,5.57
2023-01-04T09:55:49.054Z,5.75
2023-01-04T09:58:36.876Z,6.07
2023-01-04T10:01:17.515Z,7.13
2023-01-04T10:04:04.730Z,7.00
2023-01-04T10:06:35.211Z,7.30
2023-01-04T10:09:17.330Z,6.78
2023-01-04T10:12:17.432Z,6.93
2023-01-04T10:15:12.180Z,7.22
2023-01-04T10:19:36.768Z,6.40
2023-01-04T10:24:12.927Z,6.43
2023-01-04T10:26:50.903Z,5.88
2023-01-04T10:29:43.351Z,6.85
2023-01-04T10:32:32.514Z,6.63
2023-01-04T10:35:00.782Z,7.23
2023-01-04T10:37:36.462Z,6.80
2023-01-04T10:40:15.450Z,6.88
2023-01-04T10:42:59.515Z,9.00
2023-01-04T10:45:41.953Z,9.50
2023-01-04T10:48:23.016Z,9.13
2023-01-04T10:51:02.073Z,8.45
2023-01-04T10:53:57.947Z,8.40
2023-01-04T10:56:35.140Z,8.55
2023-01-04T10:59:07.817Z,9.02
2023-01-04T11:01:48.974Z,8.47
2023-01-04T11:04:30.177Z,7.80
2023-01-04T11:07:11.217Z,7.35
2023-01-04T11:09:51.129Z,8.18
2023-01-04T11:12:23.155Z,7.90
2023-01-04T11:14:52.390Z,7.43
2023-01-04T11:17:22.208Z,7.18
2023-01-04T11:19:50.553Z,7.32
2023-01-04T11:22:36.885Z,7.00
2023-01-04T11:28:40.525Z,7.50
2023-01-04T11:31:17.673Z,6.70
2023-01-04T11:33:53.169Z,6.72
2023-01-04T11:36:35.247Z,7.20
2023-01-04T11:39:04.530Z,7.80
2023-01-04T11:41:32.559Z,8.10
2023-01-04T11:44:07.388Z,8.38
2023-01-04T11:46:36.409Z,9.40
2023-01-04T11:49:04.341Z,8.93
2023-01-04T11:51:32.117Z,8.20
2023-01-04T11:54:00.175Z,8.07
2023-01-04T11:56:30.623Z,7.88
2023-01-04T11:59:11.751Z,7.18
2023-01-04T12:01:50.011Z,7.40
2023-01-04T12:04:29.038Z,6.88
2023-01-04T12:07:06.665Z,7.00
2023-01-04T12:09:35.454Z,6.80
2023-01-04T12:12:07.732Z,6.85
2023-01-04T12:14:43.039Z,6.07
2023-01-04T12:17:17.313Z,6.00
2023-01-04T12:19:47.337Z,5.90
2023-01-04T12:22:50.470Z,5.32
2023-01-04T12:25:35.629Z,5.28
2023-01-04T12:28:03.774Z,5.60
2023-01-04T12:30:44.971Z,5.35
2023-01-04T12:33:30.950Z,5.60
2023-01-04T12:36:03.311Z,5.00
2023-01-04T12:38:55.387Z,5.30
2023-01-04T12:41:25.999Z,5.47
2023-01-04T12:43:54.470Z,5.50
2023-01-04T12:46:49.502Z,5.80
2023-01-04T12:49:30.452Z,6.22
2023-01-04T12:55:05.790Z,6.18
2023-01-04T12:57:38.524Z,6.00
2023-01-04T13:00:13.022Z,6.20
2023-01-04T13:02:54.531Z,5.97
2023-01-04T13:05:55.037Z,6.18
2023-01-04T13:08:15.599Z,6.03
2023-01-04T13:10:52.587Z,5.70
2023-01-04T13:13:41.969Z,6.03
2023-01-04T13:16:18.804Z,5.60
2023-01-04T13:18:51.170Z,5.93
2023-01-04T13:21:34.370Z,5.60
2023-01-04T13:24:31.483Z,6.18
2023-01-04T13:27:08.234Z,5.57
2023-01-04T13:29:36.971Z,5.53
2023-01-04T13:32:06.077Z,5.65
2023-01-04T13:34:40.231Z,6.18
2023-01-04T13:37:25.233Z,5.72
2023-01-04T13:40:15.430Z,5.50
2023-01-04T13:43:10.062Z,5.50
2023-01-04T13:46:07.849Z,5.25
2023-01-04T13:48:40.557Z,5.07
2023-01-04T13:51:18.453Z,4.80
2023-01-04T13:53:57.352Z,4.57
2023-01-04T13:56:28.709Z,4.72
2023-01-04T13:58:56.828Z,5.00
2023-01-04T14:01:27.088Z,4.80
2023-01-04T14:04:07.525Z,4.78
2023-01-04T14:06:42.471Z,4.70
2023-01-04T14:09:11.191Z,4.88
2023-01-04T14:12:08.697Z,4.95
2023-01-04T14:14:59.832Z,4.80
2023-01-04T14:17:51.509Z,4.82
2023-01-04T14:20:25.280Z,4.90
2023-01-04T14:22:56.543Z,4.95
2023-01-04T14:25:41.405Z,4.78
2023-01-04T14:28:30.236Z,4.80
2023-01-04T14:31:05.095Z,5.20
2023-01-04T14:33:42.149Z,5.27
2023-01-04T14:36:10.451Z,5.00
2023-01-04T14:38:40.362Z,5.25
2023-01-04T14:41:22.691Z,5.38
2023-01-04T14:44:01.188Z,5.68
2023-01-04T14:46:31.622Z,5.70
2023-01-04T14:49:00.569Z,5.90
2023-01-04T14:51:50.368Z,6.05
2023-01-04T14:54:24.564Z,6.40
2023-01-04T14:56:58.317Z,6.28
2023-01-04T14:59:27.472Z,6.23
2023-01-04T15:01:57.024Z,6.30
2023-01-04T15:04:26.125Z,6.93
2023-01-04T15:06:57.859Z,7.40
2023-01-04T15:09:26.891Z,7.50
2023-01-04T15:11:54.998Z,7.73
2023-01-04T15:14:23.392Z,7.60
2023-01-04T15:16:51.530Z,8.40
2023-01-04T15:19:19.640Z,7.88
2023-01-04T15:21:47.738Z,8.38
2023-01-04T15:24:15.930Z,7.73
2023-01-04T15:26:44.043Z,8.02
2023-01-04T15:29:12.312Z,9.02
2023-01-04T15:31:42.239Z,8.05
2023-01-04T15:34:10.797Z,8.38
2023-01-04T15:36:41.388Z,8.37
2023-01-04T15:39:13.758Z,8.25
2023-01-04T15:42:00.557Z,8.15
2023-01-04T15:44:28.915Z,8.32
2023-01-04T15:46:59.937Z,8.30
2023-01-04T15:49:31.002Z,8.07
2023-01-04T15:51:59.492Z,8.25
2023-01-04T15:54:28.761Z,7.78
2023-01-04T15:56:57.223Z,8.13
2023-01-04T15:59:26.291Z,7.57
2023-01-04T16:01:54.652Z,7.30
2023-01-04T16:04:22.968Z,7.90
2023-01-04T16:06:51.178Z,8.48
2023-01-04T16:09:19.666Z,8.75
2023-01-04T16:12:06.572Z,9.15
2023-01-04T16:14:34.811Z,8.80
2023-01-04T16:17:02.936Z,9.60
2023-01-04T16:19:32.850Z,9.80
2023-01-04T16:22:01.787Z,12.02
2023-01-04T16:25:08.773Z,16.67
2023-01-04T16:27:17.995Z,15.17
2023-01-04T16:29:46.019Z,13.45
2023-01-04T16:32:14.223Z,12.27
2023-01-04T16:34:42.201Z,11.98
2023-01-04T16:37:10.699Z,12.68
2023-01-04T16:40:09.182Z,13.13
2023-01-04T16:42:26.823Z,12.25
2023-01-04T16:44:54.574Z,12.10
2023-01-04T16:47:23.131Z,12.40
2023-01-04T16:49:52.777Z,12.00
2023-01-04T16:52:21.287Z,11.43
2023-01-04T16:54:49.746Z,11.35
2023-01-04T16:57:17.698Z,11.27
2023-01-04T16:59:45.704Z,11.50
2023-01-04T17:02:14.148Z,12.68
2023-01-04T17:04:42.038Z,13.23
2023-01-04T17:07:10.754Z,13.60
2023-01-04T17:09:41.614Z,13.98
2023-01-04T17:15:40.574Z,19.95
2023-01-04T17:17:46.564Z,23.97
2023-01-04T17:20:14.781Z,23.85
2023-01-04T17:22:43.022Z,20.80
2023-01-04T17:25:11.924Z,20.23
2023-01-04T17:27:40.509Z,23.50
2023-01-04T17:30:09.264Z,24.27
2023-01-04T17:32:37.517Z,24.98
2023-01-04T17:35:05.828Z,26.08
2023-01-04T17:37:34.039Z,25.42
2023-01-04T17:40:02.300Z,24.60
2023-01-04T17:42:33.772Z,25.17
2023-01-04T17:45:01.989Z,23.30
2023-01-04T17:47:31.240Z,23.75
2023-01-04T17:49:59.576Z,24.42
2023-01-04T17:52:31.252Z,24.55
2023-01-04T17:55:00.274Z,23.63
2023-01-04T17:57:32.601Z,23.70
2023-01-04T18:00:02.815Z,25.23
2023-01-04T18:02:33.962Z,25.30
2023-01-04T18:05:02.762Z,26.05
2023-01-04T18:07:30.829Z,25.67
2023-01-04T18:09:58.840Z,26.25
2023-01-04T18:12:27.174Z,24.98
2023-01-04T18:14:55.435Z,24.63
2023-01-04T18:17:24.178Z,23.35
2023-01-04T18:19:52.595Z,23.33
2023-01-04T18:22:20.503Z,23.10
2023-01-04T18:24:48.788Z,23.00
2023-01-04T18:27:22.157Z,20.58
2023-01-04T18:29:52.340Z,20.52
2023-01-04T18:32:21.476Z,19.73
2023-01-04T18:34:49.758Z,17.88
2023-01-04T18:37:19.198Z,19.25
2023-01-04T18:39:49.137Z,20.58
2023-01-04T18:42:17.635Z,18.60
2023-01-04T18:44:49.122Z,16.83
2023-01-04T18:47:22.945Z,16.23
2023-01-04T18:49:52.889Z,16.73
2023-01-04T18:52:21.840Z,16.15
2023-01-04T18:54:50.241Z,15.57
2023-01-04T18:57:18.537Z,15.90
2023-01-04T18:59:50.538Z,15.85
2023-01-04T19:02:21.440Z,16.67
2023-01-04T19:04:50.310Z,15.18
2023-01-04T19:07:19.017Z,15.48
2023-01-04T19:09:47.512Z,16.17
2023-01-04T19:12:16.804Z,16.30
2023-01-04T19:14:45.290Z,16.92
2023-01-04T19:17:13.435Z,17.92
2023-01-04T19:19:41.775Z,18.40
2023-01-04T19:22:09.825Z,19.33
2023-01-04T19:24:38.024Z,19.30
2023-01-04T19:27:06.497Z,19.58
2023-01-04T19:29:36.514Z,20.02
2023-01-04T19:32:04.636Z,19.30
2023-01-04T19:34:32.994Z,18.07
2023-01-04T19:37:01.262Z,19.08
2023-01-04T19:39:29.711Z,16.98
2023-01-04T19:41:58.323Z,17.77
2023-01-04T19:44:26.457Z,16.88
2023-01-04T19:46:54.949Z,16.10
2023-01-04T19:49:24.979Z,15.88
2023-01-04T19:51:53.440Z,15.75
2023-01-04T19:54:25.565Z,16.00
2023-01-04T19:56:56.298Z,14.57
2023-01-04T19:59:24.994Z,14.27
2023-01-04T20:01:53.188Z,14.07
2023-01-04T20:04:21.578Z,14.10
2023-01-04T20:06:50.003Z,14.68
2023-01-04T20:09:26.519Z,15.02
2023-01-04T20:11:57.409Z,15.00
2023-01-04T20:14:26.431Z,15.05
2023-01-04T20:16:55.617Z,15.85
2023-01-04T20:19:25.206Z,15.40
2023-01-04T20:21:54.498Z,16.13
2023-01-04T20:24:24.336Z,17.00
2023-01-04T20:26:52.599Z,16.80
2023-01-04T20:29:21.041Z,17.08
2023-01-04T20:31:49.840Z,18.42
2023-01-04T20:34:19.203Z,18.83
2023-01-04T20:36:47.742Z,20.23
2023-01-04T20:39:16.219Z,17.98
2023-01-04T20:42:04.984Z,18.38
2023-01-04T20:44:37.795Z,17.95
2023-01-04T20:47:06.178Z,18.55
2023-01-04T20:49:35.983Z,18.77
2023-01-04T20:52:04.581Z,18.48
2023-01-04T20:54:33.051Z,19.92
2023-01-04T20:57:02.964Z,19.90
2023-01-04T20:59:32.197Z,18.55
2023-01-04T21:02:01.925Z,18.97
2023-01-04T21:04:33.644Z,18.17
2023-01-04T21:07:02.261Z,18.55
2023-01-04T21:09:30.495Z,18.70
2023-01-04T21:12:04.916Z,19.05
2023-01-04T21:14:38.587Z,18.40
2023-01-04T21:17:10.087Z,19.60
2023-01-04T21:19:44.190Z,18.02
2023-01-04T21:22:14.161Z,17.35
2023-01-04T21:24:44.145Z,17.15
2023-01-04T21:27:12.993Z,17.33
2023-01-04T21:29:40.954Z,17.00
2023-01-04T21:32:09.161Z,16.98
2023-01-04T21:34:40.688Z,18.48
2023-01-04T21:37:10.272Z,17.95
2023-01-04T21:39:38.570Z,18.20
2023-01-04T21:42:07.214Z,17.20
2023-01-04T21:44:35.373Z,17.05
2023-01-04T21:47:03.662Z,15.93
2023-01-04T21:49:31.820Z,14.90
2023-01-04T21:52:03.056Z,15.47
2023-01-04T21:54:31.120Z,16.58
2023-01-04T21:56:59.121Z,14.82
2023-01-04T21:59:27.275Z,15.63
2023-01-04T22:01:55.545Z,14.95
2023-01-04T22:04:24.363Z,14.90
2023-01-04T22:06:52.486Z,15.37
2023-01-04T22:09:21.111Z,14.57
2023-01-04T22:11:50.634Z,14.45
2023-01-04T22:14:19.336Z,15.05
2023-01-04T22:16:47.447Z,14.75
2023-01-04T22:19:15.845Z,14.70
2023-01-04T22:21:44.322Z,14.85
2023-01-04T22:24:14.046Z,13.82
2023-01-04T22:26:43.205Z,14.10
2023-01-04T22:29:11.782Z,13.50
2023-01-04T22:31:40.069Z,13.77
2023-01-04T22:34:08.188Z,13.10
2023-01-04T22:36:36.380Z,13.68
2023-01-04T22:39:04.899Z,13.70
2023-01-04T22:41:33.330Z,13.38
2023-01-04T22:44:06.835Z,12.73
2023-01-04T22:46:36.325Z,12.45
2023-01-04T22:49:04.787Z,13.65
2023-01-04T22:51:34.019Z,13.27
2023-01-04T22:54:03.136Z,13.82
2023-01-04T22:56:31.347Z,13.37
2023-01-04T22:58:59.755Z,13.18
2023-01-04T23:01:31.744Z,12.65
2023-01-04T23:04:01.798Z,13.55
2023-01-04T23:06:31.532Z,12.45
2023-01-04T23:09:06.132Z,12.13
2023-01-04T23:11:36.191Z,12.10
2023-01-04T23:14:06.349Z,11.38
2023-01-04T23:16:34.798Z,10.77
2023-01-04T23:19:04.105Z,11.18
2023-01-04T23:21:36.656Z,10.37
2023-01-04T23:24:05.520Z,10.35
2023-01-04T23:26:34.537Z,9.85
2023-01-04T23:29:03.610Z,9.77
2023-01-04T23:31:32.989Z,10.27
2023-01-04T23:34:04.032Z,10.13
2023-01-04T23:36:36.601Z,10.80
2023-01-04T23:39:08.727Z,9.85
2023-01-04T23:41:46.291Z,10.20
2023-01-04T23:46:56.057Z,10.23
2023-01-04T23:49:26.424Z,10.77
2023-01-04T23:51:55.015Z,10.52
2023-01-04T23:54:23.506Z,10.35
2023-01-04T23:56:52.679Z,10.80
2023-01-04T23:59:25.029Z,10.45
